Flight Track Log - Related Links

Times and Time Zones

All times are in EDT time to prevent confusion due to time zone crossing. See the ASQ5738 flight status page for this flight to view local times or setup timezone preferences in your user account.

Time Position Orientation Groundspeed Altitude Reporting Facility
EDT Latitude Longitude Course Direction KTS MPH feet Rate Location/Type
Thu 10:23:35 AM 42.7278 -73.8081 194° South 156 180 1,100  Level Boston Center
Thu 10:24:56 AM 42.6731 -73.8547 212° Southwest 225 259 4,300 2,448 Climbing Boston Center
Thu 10:26:00 AM 42.4826 -74.0766 196° South  Level Estimated
Thu 10:26:56 AM 42.7208 -74.0169 292° West 230 265 9,300  Level Boston Center
Thu 10:27:00 AM 42.3936 -74.1676 198° South  Level Estimated
Thu 10:27:56 AM 42.7803 -74.0950 316° Northwest 264 304 11,000  Level Boston Center
Thu 10:28:00 AM 42.3045 -74.2583 194° South  Level Estimated
Thu 10:28:56 AM 42.8161 -74.2064 294° West 321 369 12,100  Level Boston Center
Thu 10:29:56 AM 42.7950 -74.3417 258° West 357 411 13,900 1,800 Climbing Boston Center
Thu 10:30:56 AM 42.7103 -74.4236 215° Southwest 340 391 15,700 1,700 Climbing Boston Center
Thu 10:31:56 AM 42.6097 -74.4514 191° South 364 419 17,300 1,050 Climbing Boston Center
Thu 10:32:56 AM 42.5081 -74.4200 167° South 356 410 17,800 750 Climbing Boston Center
Thu 10:33:56 AM 42.4306 -74.3219 137° Southeast 352 405 18,800 950 Climbing Boston Center
Thu 10:34:56 AM 42.3572 -74.2158 133° Southeast 360 414 19,700 850 Climbing Boston Center
Thu 10:35:56 AM 42.2797 -74.1042 133° Southeast 376 433 20,500 800 Climbing Boston Center
Thu 10:36:56 AM 42.1808 -74.0397 154° Southeast 394 453 21,300 727 Climbing Boston Center
Thu 10:38:08 AM 42.0597 -74.0453 182° South 411 473 22,100 727 Climbing Boston Center
Thu 10:39:08 AM 41.9386 -74.0672 188° South 417 480 22,900 830 Climbing Boston Center
Thu 10:40:47 AM 41.7289 -74.1731 201° Southwest 446 513 24,300 755 Climbing New York Center
Thu 10:41:47 AM 41.6147 -74.2311 201° Southwest 446 513 24,900 610 Climbing New York Center
Thu 10:42:45 AM 41.5133 -74.2839 201° Southwest 451 519 25,500 706 Climbing New York Center
Thu 10:43:46 AM 41.3947 -74.3469 202° Southwest 451 519 26,300 984 Climbing New York Center
Thu 10:44:47 AM 41.2658 -74.4089 200° South 456 525 27,500 829 Climbing New York Center
Thu 10:45:49 AM 41.1536 -74.4664 201° Southwest 451 519 28,000 252 Climbing New York Center
Thu 10:46:46 AM 41.0353 -74.5203 199° South 451 519 28,000  Level New York Center
Thu 10:47:46 AM 40.9183 -74.5964 206° Southwest 456 525 28,000  Level New York Center
Thu 10:48:45 AM 40.8428 -74.7375 235° Southwest 451 519 28,000 -100 Level New York Center
Thu 10:49:46 AM 40.7753 -74.8869 239° Southwest 458 527 27,800 -496 Descending New York Center
Thu 10:50:46 AM 40.7094 -75.0364 240° Southwest 471 542 27,000 -807 Descending New York Center
Thu 10:51:45 AM 40.6417 -75.1853 239° Southwest 476 548 26,200 -807 Descending New York Center
Thu 10:52:45 AM 40.5714 -75.3311 238° Southwest 476 548 25,400 -793 Descending New York Center
Thu 10:53:46 AM 40.5053 -75.4767 239° Southwest 476 548 24,600 -1,328 Descending New York Center
Thu 10:54:47 AM 40.4392 -75.6194 239° Southwest 469 540 22,700 -1,966 Descending New York Center
Thu 10:55:45 AM 40.3725 -75.7675 239° Southwest 469 540 20,700 -1,361 Descending New York Center
Thu 10:56:46 AM 40.3039 -75.9067 237° Southwest 469 540 20,000 -393 Descending New York Center
Thu 10:57:47 AM 40.2442 -76.0356 239° Southwest 445 512 19,900 -504 Descending New York Center
Thu 10:58:45 AM 40.1819 -76.1667 238° Southwest 431 496 19,000 -908 Descending New York Center
Thu 10:59:46 AM 40.1197 -76.2950 238° Southwest 425 489 18,100 -741 Descending New York Center
Thu 11:01:35 AM 40.0000 -76.5333 237° Southwest 429 494 16,900 -732 Descending Potomac TRACON
Thu 11:02:30 AM 39.9500 -76.6500 241° Southwest 423 487 16,100 -939 Descending Potomac TRACON
Thu 11:03:30 AM 39.9000 -76.7667 241° Southwest 358 412 15,100 -550 Descending Potomac TRACON
Thu 11:04:30 AM 39.8500 -76.8667 237° Southwest 323 372 15,000 -500 Descending Potomac TRACON
Thu 11:05:30 AM 39.8000 -76.9667 237° Southwest 317 365 14,100 -1,000 Descending Potomac TRACON
Thu 11:06:30 AM 39.7667 -77.0500 243° Southwest 310 357 13,000 -1,158 Descending Potomac TRACON
Thu 11:07:24 AM 39.7500 -77.1500 258° West 324 373 11,900 -1,150 Descending Potomac TRACON
Thu 11:08:30 AM 39.7500 -77.2667 270° West 311 358 10,700 -950 Descending Potomac TRACON
Thu 11:09:24 AM 39.7000 -77.3167 218° Southwest 274 315 10,000 -470 Descending Potomac TRACON
Thu 11:10:25 AM 39.6333 -77.3333 191° South 247 284 9,800 -744 Descending Potomac TRACON
Thu 11:11:25 AM 39.5667 -77.3500 191° South 234 269 8,500 -900 Descending Potomac TRACON
Thu 11:12:25 AM 39.5000 -77.3500 180° South 232 267 8,000 -250 Descending Potomac TRACON
Thu 11:13:25 AM 39.4333 -77.3667 191° South 223 257 8,000  Level Potomac TRACON
Thu 11:14:25 AM 39.3833 -77.3667 180° South 220 253 8,000  Level Potomac TRACON
Thu 11:15:25 AM 39.3167 -77.3667 180° South 225 259 8,000  Level Potomac TRACON
Thu 11:16:25 AM 39.2500 -77.3667 180° South 228 262 8,000 -316 Level Potomac TRACON
Thu 11:17:19 AM 39.2000 -77.3667 180° South 227 261 7,400 -1,409 Descending Potomac TRACON
Thu 11:18:20 AM 39.1333 -77.3500 169° South 224 258 5,300 -1,686 Descending Potomac TRACON
Thu 11:19:20 AM 39.0667 -77.3500 180° South 215 247 4,000 -650 Descending Potomac TRACON
Thu 11:20:20 AM 39.0167 -77.3500 180° South 198 228 4,000  Level Potomac TRACON
Thu 11:21:20 AM 38.9667 -77.3500 180° South 201 231 4,000  Level Potomac TRACON
Thu 11:22:20 AM 38.9167 -77.3500 180° South 201 231 4,000 -300 Level Potomac TRACON
Thu 11:23:20 AM 38.8500 -77.3667 191° South 202 232 3,400 -526 Descending Potomac TRACON
Thu 11:24:14 AM 38.8167 -77.3667 180° South 202 232 3,000 -526 Descending Potomac TRACON
Thu 11:25:14 AM 38.8167 -77.4333 270° West 189 217 2,400 -600 Descending Potomac TRACON

Login

Don't have an account? Register now (free) for customized features, flight alerts, and more!